sensor_id;sensor_type;location;lat;lon;timestamp;P1;durP1;ratioP1;P2;durP2;ratioP2
76208;SDS011;64990;51.698;-0.292;2023-07-29T00:00:33;2.85;;;0.85;;
76208;SDS011;64990;51.698;-0.292;2023-07-29T00:02:59;6.68;;;0.77;;
76208;SDS011;64990;51.698;-0.292;2023-07-29T00:05:25;2.17;;;0.95;;
76208;SDS011;64990;51.698;-0.292;2023-07-29T00:07:51;6.75;;;1.20;;
76208;SDS011;64990;51.698;-0.292;2023-07-29T00:10:17;4.88;;;1.15;;
76208;SDS011;64990;51.698;-0.292;2023-07-29T00:12:43;5.65;;;0.95;;
76208;SDS011;64990;51.698;-0.292;2023-07-29T00:15:10;0.75;;;0.75;;
76208;SDS011;64990;51.698;-0.292;2023-07-29T00:17:36;1.50;;;0.80;;
76208;SDS011;64990;51.698;-0.292;2023-07-29T00:20:02;5.15;;;1.20;;
76208;SDS011;64990;51.698;-0.292;2023-07-29T00:22:28;4.03;;;1.08;;
76208;SDS011;64990;51.698;-0.292;2023-07-29T00:24:54;3.08;;;1.30;;
76208;SDS011;64990;51.698;-0.292;2023-07-29T00:27:20;1.65;;;1.20;;
76208;SDS011;64990;51.698;-0.292;2023-07-29T00:29:46;1.40;;;0.90;;
76208;SDS011;64990;51.698;-0.292;2023-07-29T00:32:12;4.60;;;1.55;;
76208;SDS011;64990;51.698;-0.292;2023-07-29T00:34:38;2.10;;;1.40;;
76208;SDS011;64990;51.698;-0.292;2023-07-29T00:37:05;2.78;;;0.95;;
76208;SDS011;64990;51.698;-0.292;2023-07-29T00:39:31;7.93;;;1.58;;
76208;SDS011;64990;51.698;-0.292;2023-07-29T00:41:57;3.92;;;0.75;;
76208;SDS011;64990;51.698;-0.292;2023-07-29T00:44:23;1.25;;;0.90;;
76208;SDS011;64990;51.698;-0.292;2023-07-29T00:46:52;10.48;;;1.35;;
76208;SDS011;64990;51.698;-0.292;2023-07-29T00:49:19;4.10;;;1.33;;
76208;SDS011;64990;51.698;-0.292;2023-07-29T00:51:45;2.35;;;1.50;;
76208;SDS011;64990;51.698;-0.292;2023-07-29T00:54:11;14.52;;;1.58;;
76208;SDS011;64990;51.698;-0.292;2023-07-29T00:56:37;4.22;;;1.10;;
76208;SDS011;64990;51.698;-0.292;2023-07-29T00:59:03;2.10;;;0.98;;
76208;SDS011;64990;51.698;-0.292;2023-07-29T01:01:30;5.63;;;1.08;;
76208;SDS011;64990;51.698;-0.292;2023-07-29T01:03:56;5.15;;;1.45;;
76208;SDS011;64990;51.698;-0.292;2023-07-29T01:08:55;6.47;;;1.30;;
76208;SDS011;64990;51.698;-0.292;2023-07-29T01:13:53;2.53;;;1.38;;
76208;SDS011;64990;51.698;-0.292;2023-07-29T01:16:39;10.07;;;1.85;;
76208;SDS011;64990;51.698;-0.292;2023-07-29T01:19:07;4.57;;;1.40;;
76208;SDS011;64990;51.698;-0.292;2023-07-29T01:21:40;4.80;;;1.70;;
76208;SDS011;64990;51.698;-0.292;2023-07-29T01:24:06;3.58;;;1.83;;
76208;SDS011;64990;51.698;-0.292;2023-07-29T01:26:32;4.22;;;2.03;;
76208;SDS011;64990;51.698;-0.292;2023-07-29T01:28:58;4.85;;;2.47;;
76208;SDS011;64990;51.698;-0.292;2023-07-29T01:31:30;4.15;;;1.45;;
76208;SDS011;64990;51.698;-0.292;2023-07-29T01:34:06;15.00;;;2.53;;
76208;SDS011;64990;51.698;-0.292;2023-07-29T01:36:35;11.82;;;2.10;;
76208;SDS011;64990;51.698;-0.292;2023-07-29T01:44:42;4.88;;;1.63;;
76208;SDS011;64990;51.698;-0.292;2023-07-29T01:47:08;6.00;;;2.17;;
76208;SDS011;64990;51.698;-0.292;2023-07-29T01:49:36;4.18;;;1.80;;
76208;SDS011;64990;51.698;-0.292;2023-07-29T01:52:02;8.95;;;2.28;;
76208;SDS011;64990;51.698;-0.292;2023-07-29T01:54:28;5.07;;;1.83;;
76208;SDS011;64990;51.698;-0.292;2023-07-29T01:56:54;4.15;;;2.08;;
76208;SDS011;64990;51.698;-0.292;2023-07-29T01:59:20;8.50;;;2.20;;
76208;SDS011;64990;51.698;-0.292;2023-07-29T02:01:46;6.90;;;2.08;;
76208;SDS011;64990;51.698;-0.292;2023-07-29T02:04:13;5.70;;;2.75;;
76208;SDS011;64990;51.698;-0.292;2023-07-29T02:06:39;14.38;;;3.38;;
76208;SDS011;64990;51.698;-0.292;2023-07-29T02:09:05;9.68;;;2.33;;
76208;SDS011;64990;51.698;-0.292;2023-07-29T02:11:32;5.28;;;2.28;;
76208;SDS011;64990;51.698;-0.292;2023-07-29T02:13:58;6.00;;;1.88;;
76208;SDS011;64990;51.698;-0.292;2023-07-29T02:16:24;9.75;;;2.30;;
76208;SDS011;64990;51.698;-0.292;2023-07-29T02:18:50;9.77;;;3.55;;
76208;SDS011;64990;51.698;-0.292;2023-07-29T02:21:16;6.22;;;2.83;;
76208;SDS011;64990;51.698;-0.292;2023-07-29T02:23:42;8.43;;;2.63;;
76208;SDS011;64990;51.698;-0.292;2023-07-29T02:26:08;14.65;;;2.35;;
76208;SDS011;64990;51.698;-0.292;2023-07-29T02:28:34;9.57;;;3.38;;
76208;SDS011;64990;51.698;-0.292;2023-07-29T02:31:12;8.23;;;2.60;;
76208;SDS011;64990;51.698;-0.292;2023-07-29T02:33:38;6.60;;;2.53;;
76208;SDS011;64990;51.698;-0.292;2023-07-29T02:36:04;12.52;;;3.40;;
76208;SDS011;64990;51.698;-0.292;2023-07-29T02:38:30;10.35;;;3.00;;
76208;SDS011;64990;51.698;-0.292;2023-07-29T02:40:56;7.50;;;3.67;;
76208;SDS011;64990;51.698;-0.292;2023-07-29T02:43:22;9.60;;;2.22;;
76208;SDS011;64990;51.698;-0.292;2023-07-29T02:45:48;6.70;;;2.13;;
76208;SDS011;64990;51.698;-0.292;2023-07-29T02:48:14;8.23;;;2.78;;
76208;SDS011;64990;51.698;-0.292;2023-07-29T02:50:40;8.60;;;3.72;;
76208;SDS011;64990;51.698;-0.292;2023-07-29T02:53:06;8.50;;;2.75;;
76208;SDS011;64990;51.698;-0.292;2023-07-29T02:55:32;18.08;;;5.03;;
76208;SDS011;64990;51.698;-0.292;2023-07-29T02:57:58;6.53;;;2.53;;
76208;SDS011;64990;51.698;-0.292;2023-07-29T03:00:24;8.55;;;2.92;;
76208;SDS011;64990;51.698;-0.292;2023-07-29T03:02:50;7.60;;;3.15;;
76208;SDS011;64990;51.698;-0.292;2023-07-29T03:05:16;11.98;;;3.63;;
76208;SDS011;64990;51.698;-0.292;2023-07-29T03:07:42;6.85;;;2.75;;
76208;SDS011;64990;51.698;-0.292;2023-07-29T03:10:08;16.38;;;3.88;;
76208;SDS011;64990;51.698;-0.292;2023-07-29T03:12:36;6.13;;;2.78;;
76208;SDS011;64990;51.698;-0.292;2023-07-29T03:15:02;10.20;;;3.03;;
76208;SDS011;64990;51.698;-0.292;2023-07-29T03:17:28;8.05;;;2.67;;
76208;SDS011;64990;51.698;-0.292;2023-07-29T03:19:54;26.13;;;3.13;;
76208;SDS011;64990;51.698;-0.292;2023-07-29T03:22:20;10.10;;;3.30;;
76208;SDS011;64990;51.698;-0.292;2023-07-29T03:24:46;6.50;;;2.45;;
76208;SDS011;64990;51.698;-0.292;2023-07-29T03:27:12;6.97;;;3.10;;
76208;SDS011;64990;51.698;-0.292;2023-07-29T03:29:40;8.68;;;2.88;;
76208;SDS011;64990;51.698;-0.292;2023-07-29T03:32:06;17.90;;;4.40;;
76208;SDS011;64990;51.698;-0.292;2023-07-29T03:34:32;11.80;;;4.68;;
76208;SDS011;64990;51.698;-0.292;2023-07-29T03:36:58;9.68;;;3.85;;
76208;SDS011;64990;51.698;-0.292;2023-07-29T03:39:24;11.13;;;2.88;;
76208;SDS011;64990;51.698;-0.292;2023-07-29T03:41:50;15.95;;;2.75;;
76208;SDS011;64990;51.698;-0.292;2023-07-29T03:44:16;6.75;;;3.25;;
76208;SDS011;64990;51.698;-0.292;2023-07-29T03:46:43;8.82;;;3.22;;
76208;SDS011;64990;51.698;-0.292;2023-07-29T03:49:09;6.15;;;2.92;;
76208;SDS011;64990;51.698;-0.292;2023-07-29T03:51:35;10.73;;;3.42;;
76208;SDS011;64990;51.698;-0.292;2023-07-29T03:54:01;12.40;;;3.83;;
76208;SDS011;64990;51.698;-0.292;2023-07-29T03:56:27;5.93;;;2.30;;
76208;SDS011;64990;51.698;-0.292;2023-07-29T03:58:53;13.15;;;3.67;;
76208;SDS011;64990;51.698;-0.292;2023-07-29T04:01:19;7.55;;;3.50;;
76208;SDS011;64990;51.698;-0.292;2023-07-29T04:03:45;14.38;;;3.42;;
76208;SDS011;64990;51.698;-0.292;2023-07-29T04:06:11;7.10;;;3.20;;
76208;SDS011;64990;51.698;-0.292;2023-07-29T04:08:37;9.43;;;3.25;;
76208;SDS011;64990;51.698;-0.292;2023-07-29T04:11:03;13.90;;;3.75;;
76208;SDS011;64990;51.698;-0.292;2023-07-29T04:13:29;17.77;;;3.70;;
76208;SDS011;64990;51.698;-0.292;2023-07-29T04:15:55;9.38;;;3.45;;
76208;SDS011;64990;51.698;-0.292;2023-07-29T04:18:21;11.18;;;3.20;;
76208;SDS011;64990;51.698;-0.292;2023-07-29T04:20:47;10.65;;;3.60;;
76208;SDS011;64990;51.698;-0.292;2023-07-29T04:23:13;13.10;;;3.22;;
76208;SDS011;64990;51.698;-0.292;2023-07-29T04:25:39;25.52;;;4.32;;
76208;SDS011;64990;51.698;-0.292;2023-07-29T04:28:05;11.43;;;3.20;;
76208;SDS011;64990;51.698;-0.292;2023-07-29T04:30:31;12.38;;;3.58;;
76208;SDS011;64990;51.698;-0.292;2023-07-29T04:32:57;10.38;;;3.20;;
76208;SDS011;64990;51.698;-0.292;2023-07-29T04:35:23;13.95;;;4.00;;
76208;SDS011;64990;51.698;-0.292;2023-07-29T04:37:49;11.57;;;2.80;;
76208;SDS011;64990;51.698;-0.292;2023-07-29T04:40:15;12.30;;;3.88;;
76208;SDS011;64990;51.698;-0.292;2023-07-29T04:42:41;13.65;;;3.85;;
76208;SDS011;64990;51.698;-0.292;2023-07-29T04:45:07;9.52;;;3.13;;
76208;SDS011;64990;51.698;-0.292;2023-07-29T04:47:33;8.38;;;3.60;;
76208;SDS011;64990;51.698;-0.292;2023-07-29T04:49:59;12.63;;;3.15;;
76208;SDS011;64990;51.698;-0.292;2023-07-29T04:52:25;15.05;;;3.55;;
76208;SDS011;64990;51.698;-0.292;2023-07-29T04:54:51;11.82;;;4.10;;
76208;SDS011;64990;51.698;-0.292;2023-07-29T04:57:17;8.80;;;3.15;;
76208;SDS011;64990;51.698;-0.292;2023-07-29T04:59:43;9.57;;;4.13;;
76208;SDS011;64990;51.698;-0.292;2023-07-29T05:02:09;11.73;;;2.95;;
76208;SDS011;64990;51.698;-0.292;2023-07-29T05:04:36;18.00;;;5.00;;
76208;SDS011;64990;51.698;-0.292;2023-07-29T05:07:02;20.90;;;5.78;;
76208;SDS011;64990;51.698;-0.292;2023-07-29T05:09:28;15.50;;;5.07;;
76208;SDS011;64990;51.698;-0.292;2023-07-29T05:11:54;11.18;;;2.97;;
76208;SDS011;64990;51.698;-0.292;2023-07-29T05:14:20;19.05;;;2.72;;
76208;SDS011;64990;51.698;-0.292;2023-07-29T05:16:46;15.07;;;3.58;;
76208;SDS011;64990;51.698;-0.292;2023-07-29T05:19:12;20.08;;;3.55;;
76208;SDS011;64990;51.698;-0.292;2023-07-29T05:21:38;12.68;;;3.45;;
76208;SDS011;64990;51.698;-0.292;2023-07-29T05:24:05;14.40;;;4.22;;
76208;SDS011;64990;51.698;-0.292;2023-07-29T05:26:31;9.82;;;3.55;;
76208;SDS011;64990;51.698;-0.292;2023-07-29T05:28:57;11.13;;;3.65;;
76208;SDS011;64990;51.698;-0.292;2023-07-29T05:31:23;12.75;;;3.40;;
76208;SDS011;64990;51.698;-0.292;2023-07-29T05:33:49;11.98;;;3.83;;
76208;SDS011;64990;51.698;-0.292;2023-07-29T05:36:15;11.30;;;2.90;;
76208;SDS011;64990;51.698;-0.292;2023-07-29T05:38:41;10.85;;;3.05;;
76208;SDS011;64990;51.698;-0.292;2023-07-29T05:41:07;11.95;;;4.00;;
76208;SDS011;64990;51.698;-0.292;2023-07-29T05:43:33;21.45;;;4.50;;
76208;SDS011;64990;51.698;-0.292;2023-07-29T05:45:59;7.93;;;3.38;;
76208;SDS011;64990;51.698;-0.292;2023-07-29T05:48:25;10.00;;;3.38;;
76208;SDS011;64990;51.698;-0.292;2023-07-29T05:50:51;17.25;;;3.60;;
76208;SDS011;64990;51.698;-0.292;2023-07-29T05:53:17;11.70;;;3.70;;
76208;SDS011;64990;51.698;-0.292;2023-07-29T05:55:43;24.88;;;4.93;;
76208;SDS011;64990;51.698;-0.292;2023-07-29T05:58:09;20.20;;;3.38;;
76208;SDS011;64990;51.698;-0.292;2023-07-29T06:00:36;17.77;;;3.90;;
76208;SDS011;64990;51.698;-0.292;2023-07-29T06:03:02;11.85;;;2.60;;
76208;SDS011;64990;51.698;-0.292;2023-07-29T06:05:28;10.30;;;2.97;;
76208;SDS011;64990;51.698;-0.292;2023-07-29T06:07:54;15.38;;;3.83;;
76208;SDS011;64990;51.698;-0.292;2023-07-29T06:10:19;15.85;;;6.32;;
76208;SDS011;64990;51.698;-0.292;2023-07-29T06:12:47;13.88;;;4.55;;
76208;SDS011;64990;51.698;-0.292;2023-07-29T06:15:13;16.02;;;4.97;;
76208;SDS011;64990;51.698;-0.292;2023-07-29T06:17:39;9.43;;;3.95;;
76208;SDS011;64990;51.698;-0.292;2023-07-29T06:20:05;11.23;;;3.75;;
76208;SDS011;64990;51.698;-0.292;2023-07-29T06:22:32;10.30;;;3.22;;
76208;SDS011;64990;51.698;-0.292;2023-07-29T06:24:58;13.60;;;3.53;;
76208;SDS011;64990;51.698;-0.292;2023-07-29T06:27:24;9.23;;;3.83;;
76208;SDS011;64990;51.698;-0.292;2023-07-29T06:29:50;15.27;;;4.10;;
76208;SDS011;64990;51.698;-0.292;2023-07-29T06:32:16;15.20;;;3.15;;
76208;SDS011;64990;51.698;-0.292;2023-07-29T06:34:42;5.82;;;3.00;;
76208;SDS011;64990;51.698;-0.292;2023-07-29T06:37:08;8.05;;;2.97;;
76208;SDS011;64990;51.698;-0.292;2023-07-29T06:39:34;17.13;;;3.60;;
76208;SDS011;64990;51.698;-0.292;2023-07-29T06:42:00;17.15;;;4.15;;
76208;SDS011;64990;51.698;-0.292;2023-07-29T06:44:27;10.43;;;3.60;;
76208;SDS011;64990;51.698;-0.292;2023-07-29T06:46:53;10.57;;;2.83;;
76208;SDS011;64990;51.698;-0.292;2023-07-29T06:49:19;9.00;;;2.55;;
76208;SDS011;64990;51.698;-0.292;2023-07-29T06:51:45;7.75;;;3.30;;
76208;SDS011;64990;51.698;-0.292;2023-07-29T06:54:11;11.07;;;3.80;;
76208;SDS011;64990;51.698;-0.292;2023-07-29T06:56:37;9.50;;;2.80;;
76208;SDS011;64990;51.698;-0.292;2023-07-29T06:59:03;9.32;;;2.45;;
76208;SDS011;64990;51.698;-0.292;2023-07-29T07:01:29;11.02;;;2.42;;
76208;SDS011;64990;51.698;-0.292;2023-07-29T07:03:55;8.43;;;3.15;;
76208;SDS011;64990;51.698;-0.292;2023-07-29T07:06:23;14.30;;;2.80;;
76208;SDS011;64990;51.698;-0.292;2023-07-29T07:08:50;4.65;;;2.53;;
76208;SDS011;64990;51.698;-0.292;2023-07-29T07:11:16;20.70;;;4.32;;
76208;SDS011;64990;51.698;-0.292;2023-07-29T07:13:42;8.52;;;2.65;;
76208;SDS011;64990;51.698;-0.292;2023-07-29T07:16:08;4.38;;;2.35;;
76208;SDS011;64990;51.698;-0.292;2023-07-29T07:18:34;10.27;;;3.50;;
76208;SDS011;64990;51.698;-0.292;2023-07-29T07:21:00;25.70;;;4.25;;
76208;SDS011;64990;51.698;-0.292;2023-07-29T07:23:26;4.43;;;3.05;;
76208;SDS011;64990;51.698;-0.292;2023-07-29T07:25:52;6.80;;;3.38;;
76208;SDS011;64990;51.698;-0.292;2023-07-29T07:28:18;11.95;;;3.42;;
76208;SDS011;64990;51.698;-0.292;2023-07-29T07:30:44;12.20;;;3.03;;
76208;SDS011;64990;51.698;-0.292;2023-07-29T07:33:10;6.03;;;3.22;;
76208;SDS011;64990;51.698;-0.292;2023-07-29T07:35:36;6.70;;;3.53;;
76208;SDS011;64990;51.698;-0.292;2023-07-29T07:38:02;9.00;;;2.30;;
76208;SDS011;64990;51.698;-0.292;2023-07-29T07:40:30;7.75;;;2.50;;
76208;SDS011;64990;51.698;-0.292;2023-07-29T07:42:56;3.95;;;2.05;;
76208;SDS011;64990;51.698;-0.292;2023-07-29T07:45:22;7.32;;;2.15;;
76208;SDS011;64990;51.698;-0.292;2023-07-29T07:47:48;8.63;;;2.80;;
76208;SDS011;64990;51.698;-0.292;2023-07-29T07:50:14;8.93;;;3.15;;
76208;SDS011;64990;51.698;-0.292;2023-07-29T07:52:40;6.50;;;2.70;;
76208;SDS011;64990;51.698;-0.292;2023-07-29T07:55:07;6.72;;;2.67;;
76208;SDS011;64990;51.698;-0.292;2023-07-29T07:57:33;6.18;;;2.38;;
76208;SDS011;64990;51.698;-0.292;2023-07-29T07:59:59;8.35;;;2.35;;
76208;SDS011;64990;51.698;-0.292;2023-07-29T08:02:25;17.55;;;4.50;;
76208;SDS011;64990;51.698;-0.292;2023-07-29T08:04:52;5.63;;;2.80;;
76208;SDS011;64990;51.698;-0.292;2023-07-29T08:07:18;11.32;;;5.25;;
76208;SDS011;64990;51.698;-0.292;2023-07-29T08:09:44;9.55;;;3.85;;
76208;SDS011;64990;51.698;-0.292;2023-07-29T08:12:10;6.43;;;2.00;;
76208;SDS011;64990;51.698;-0.292;2023-07-29T08:14:36;8.93;;;3.72;;
76208;SDS011;64990;51.698;-0.292;2023-07-29T08:17:02;12.98;;;3.35;;
76208;SDS011;64990;51.698;-0.292;2023-07-29T08:19:28;7.95;;;2.25;;
76208;SDS011;64990;51.698;-0.292;2023-07-29T08:21:54;8.20;;;2.40;;
76208;SDS011;64990;51.698;-0.292;2023-07-29T08:24:20;4.05;;;1.80;;
76208;SDS011;64990;51.698;-0.292;2023-07-29T08:26:46;5.38;;;2.22;;
76208;SDS011;64990;51.698;-0.292;2023-07-29T08:29:12;3.00;;;2.70;;
76208;SDS011;64990;51.698;-0.292;2023-07-29T08:31:38;7.45;;;2.08;;
76208;SDS011;64990;51.698;-0.292;2023-07-29T08:34:04;11.57;;;2.67;;
76208;SDS011;64990;51.698;-0.292;2023-07-29T08:36:30;5.47;;;2.65;;
76208;SDS011;64990;51.698;-0.292;2023-07-29T08:38:56;10.27;;;2.72;;
76208;SDS011;64990;51.698;-0.292;2023-07-29T08:41:26;6.10;;;2.63;;
76208;SDS011;64990;51.698;-0.292;2023-07-29T08:46:21;13.85;;;3.03;;
76208;SDS011;64990;51.698;-0.292;2023-07-29T08:48:47;5.65;;;1.70;;
76208;SDS011;64990;51.698;-0.292;2023-07-29T08:51:13;9.55;;;2.13;;
76208;SDS011;64990;51.698;-0.292;2023-07-29T08:53:40;4.93;;;1.85;;
76208;SDS011;64990;51.698;-0.292;2023-07-29T08:56:06;5.68;;;2.20;;
76208;SDS011;64990;51.698;-0.292;2023-07-29T08:58:33;6.93;;;2.03;;
76208;SDS011;64990;51.698;-0.292;2023-07-29T09:00:59;4.82;;;2.50;;
76208;SDS011;64990;51.698;-0.292;2023-07-29T09:03:28;3.85;;;1.70;;
76208;SDS011;64990;51.698;-0.292;2023-07-29T09:05:54;19.40;;;5.28;;
76208;SDS011;64990;51.698;-0.292;2023-07-29T09:08:21;9.02;;;2.00;;
76208;SDS011;64990;51.698;-0.292;2023-07-29T09:10:48;9.40;;;4.05;;
76208;SDS011;64990;51.698;-0.292;2023-07-29T09:13:14;9.68;;;2.60;;
76208;SDS011;64990;51.698;-0.292;2023-07-29T09:15:40;12.15;;;3.65;;
76208;SDS011;64990;51.698;-0.292;2023-07-29T09:18:26;8.73;;;1.60;;
76208;SDS011;64990;51.698;-0.292;2023-07-29T09:20:52;13.00;;;2.28;;
76208;SDS011;64990;51.698;-0.292;2023-07-29T09:23:19;10.05;;;1.75;;
76208;SDS011;64990;51.698;-0.292;2023-07-29T09:25:48;3.20;;;2.03;;
76208;SDS011;64990;51.698;-0.292;2023-07-29T09:28:14;8.48;;;2.63;;
76208;SDS011;64990;51.698;-0.292;2023-07-29T09:30:42;10.45;;;2.00;;
76208;SDS011;64990;51.698;-0.292;2023-07-29T09:33:08;10.88;;;1.77;;
76208;SDS011;64990;51.698;-0.292;2023-07-29T09:35:35;5.82;;;2.00;;
76208;SDS011;64990;51.698;-0.292;2023-07-29T09:38:01;6.50;;;2.10;;
76208;SDS011;64990;51.698;-0.292;2023-07-29T09:40:33;8.32;;;3.00;;
76208;SDS011;64990;51.698;-0.292;2023-07-29T09:43:00;4.70;;;1.75;;
76208;SDS011;64990;51.698;-0.292;2023-07-29T09:45:26;2.60;;;1.38;;
76208;SDS011;64990;51.698;-0.292;2023-07-29T09:47:53;7.07;;;2.08;;
76208;SDS011;64990;51.698;-0.292;2023-07-29T09:50:23;10.48;;;1.90;;
76208;SDS011;64990;51.698;-0.292;2023-07-29T09:52:50;13.80;;;2.88;;
76208;SDS011;64990;51.698;-0.292;2023-07-29T09:55:17;2.50;;;1.67;;
76208;SDS011;64990;51.698;-0.292;2023-07-29T09:57:44;9.32;;;2.33;;
76208;SDS011;64990;51.698;-0.292;2023-07-29T10:00:10;3.83;;;1.30;;
76208;SDS011;64990;51.698;-0.292;2023-07-29T10:02:40;3.90;;;1.85;;
76208;SDS011;64990;51.698;-0.292;2023-07-29T10:05:07;3.63;;;1.55;;
76208;SDS011;64990;51.698;-0.292;2023-07-29T10:07:34;8.32;;;2.17;;
76208;SDS011;64990;51.698;-0.292;2023-07-29T10:10:01;5.78;;;1.75;;
76208;SDS011;64990;51.698;-0.292;2023-07-29T10:12:28;6.55;;;1.67;;
76208;SDS011;64990;51.698;-0.292;2023-07-29T10:14:54;2.55;;;1.20;;
76208;SDS011;64990;51.698;-0.292;2023-07-29T10:17:20;3.45;;;1.70;;
76208;SDS011;64990;51.698;-0.292;2023-07-29T10:19:47;5.25;;;1.83;;
76208;SDS011;64990;51.698;-0.292;2023-07-29T10:22:13;5.72;;;1.58;;
76208;SDS011;64990;51.698;-0.292;2023-07-29T10:24:42;8.02;;;2.00;;
76208;SDS011;64990;51.698;-0.292;2023-07-29T10:27:09;3.85;;;2.15;;
76208;SDS011;64990;51.698;-0.292;2023-07-29T10:29:38;4.32;;;1.58;;
76208;SDS011;64990;51.698;-0.292;2023-07-29T10:32:07;3.50;;;1.55;;
76208;SDS011;64990;51.698;-0.292;2023-07-29T10:34:34;5.97;;;2.05;;
76208;SDS011;64990;51.698;-0.292;2023-07-29T10:37:01;9.35;;;1.98;;
76208;SDS011;64990;51.698;-0.292;2023-07-29T10:39:27;4.88;;;1.40;;
76208;SDS011;64990;51.698;-0.292;2023-07-29T10:42:05;5.95;;;1.58;;
76208;SDS011;64990;51.698;-0.292;2023-07-29T10:45:04;4.47;;;1.70;;
76208;SDS011;64990;51.698;-0.292;2023-07-29T10:47:27;4.18;;;1.77;;
76208;SDS011;64990;51.698;-0.292;2023-07-29T10:49:58;11.30;;;1.63;;
76208;SDS011;64990;51.698;-0.292;2023-07-29T10:52:42;10.65;;;2.08;;
76208;SDS011;64990;51.698;-0.292;2023-07-29T10:55:27;10.20;;;2.58;;
76208;SDS011;64990;51.698;-0.292;2023-07-29T10:58:15;7.70;;;1.45;;
76208;SDS011;64990;51.698;-0.292;2023-07-29T11:00:42;3.88;;;1.23;;
76208;SDS011;64990;51.698;-0.292;2023-07-29T11:03:08;2.45;;;1.10;;
76208;SDS011;64990;51.698;-0.292;2023-07-29T11:05:56;9.75;;;2.28;;
76208;SDS011;64990;51.698;-0.292;2023-07-29T11:11:06;13.55;;;2.10;;
76208;SDS011;64990;51.698;-0.292;2023-07-29T11:13:36;18.88;;;2.47;;
76208;SDS011;64990;51.698;-0.292;2023-07-29T11:16:02;3.53;;;1.40;;
76208;SDS011;64990;51.698;-0.292;2023-07-29T11:18:29;3.95;;;1.45;;
76208;SDS011;64990;51.698;-0.292;2023-07-29T11:20:56;4.45;;;1.13;;
76208;SDS011;64990;51.698;-0.292;2023-07-29T11:23:33;2.28;;;0.90;;
76208;SDS011;64990;51.698;-0.292;2023-07-29T11:25:59;4.20;;;1.20;;
76208;SDS011;64990;51.698;-0.292;2023-07-29T11:28:26;14.20;;;2.58;;
76208;SDS011;64990;51.698;-0.292;2023-07-29T11:30:53;16.33;;;1.77;;
76208;SDS011;64990;51.698;-0.292;2023-07-29T11:33:20;11.40;;;1.60;;
76208;SDS011;64990;51.698;-0.292;2023-07-29T11:35:46;5.35;;;1.10;;
76208;SDS011;64990;51.698;-0.292;2023-07-29T11:38:16;6.15;;;1.67;;
76208;SDS011;64990;51.698;-0.292;2023-07-29T11:40:42;3.25;;;0.95;;
76208;SDS011;64990;51.698;-0.292;2023-07-29T11:43:08;3.17;;;1.02;;
76208;SDS011;64990;51.698;-0.292;2023-07-29T11:45:34;9.48;;;1.67;;
76208;SDS011;64990;51.698;-0.292;2023-07-29T11:48:01;5.57;;;1.23;;
76208;SDS011;64990;51.698;-0.292;2023-07-29T11:50:27;2.30;;;0.60;;
76208;SDS011;64990;51.698;-0.292;2023-07-29T11:52:53;1.90;;;0.77;;
76208;SDS011;64990;51.698;-0.292;2023-07-29T11:55:19;5.85;;;0.90;;
76208;SDS011;64990;51.698;-0.292;2023-07-29T11:57:45;5.32;;;0.82;;
76208;SDS011;64990;51.698;-0.292;2023-07-29T12:00:15;6.82;;;1.30;;
76208;SDS011;64990;51.698;-0.292;2023-07-29T12:02:43;14.48;;;2.38;;
76208;SDS011;64990;51.698;-0.292;2023-07-29T12:05:10;6.90;;;1.33;;
76208;SDS011;64990;51.698;-0.292;2023-07-29T12:07:39;3.33;;;0.85;;
76208;SDS011;64990;51.698;-0.292;2023-07-29T12:10:07;2.42;;;1.15;;
76208;SDS011;64990;51.698;-0.292;2023-07-29T12:12:33;4.15;;;0.68;;
76208;SDS011;64990;51.698;-0.292;2023-07-29T12:14:59;5.68;;;0.95;;
76208;SDS011;64990;51.698;-0.292;2023-07-29T12:17:28;4.85;;;0.82;;
76208;SDS011;64990;51.698;-0.292;2023-07-29T12:19:54;1.70;;;0.90;;
76208;SDS011;64990;51.698;-0.292;2023-07-29T12:22:21;3.45;;;1.13;;
76208;SDS011;64990;51.698;-0.292;2023-07-29T12:24:47;3.30;;;0.93;;
76208;SDS011;64990;51.698;-0.292;2023-07-29T12:27:13;14.43;;;1.77;;
76208;SDS011;64990;51.698;-0.292;2023-07-29T12:29:43;2.88;;;1.08;;
76208;SDS011;64990;51.698;-0.292;2023-07-29T12:32:09;2.72;;;1.13;;
76208;SDS011;64990;51.698;-0.292;2023-07-29T12:34:36;2.63;;;0.80;;
76208;SDS011;64990;51.698;-0.292;2023-07-29T12:37:03;3.88;;;1.15;;
76208;SDS011;64990;51.698;-0.292;2023-07-29T12:39:31;3.90;;;1.63;;
76208;SDS011;64990;51.698;-0.292;2023-07-29T12:41:58;7.15;;;1.95;;
76208;SDS011;64990;51.698;-0.292;2023-07-29T12:44:25;4.32;;;1.27;;
76208;SDS011;64990;51.698;-0.292;2023-07-29T12:46:51;6.38;;;1.30;;
76208;SDS011;64990;51.698;-0.292;2023-07-29T12:49:17;2.60;;;1.20;;
76208;SDS011;64990;51.698;-0.292;2023-07-29T12:51:43;5.05;;;0.95;;
76208;SDS011;64990;51.698;-0.292;2023-07-29T12:54:09;6.50;;;1.30;;
76208;SDS011;64990;51.698;-0.292;2023-07-29T12:56:35;3.25;;;0.82;;
76208;SDS011;64990;51.698;-0.292;2023-07-29T12:59:02;3.35;;;1.40;;
76208;SDS011;64990;51.698;-0.292;2023-07-29T13:01:28;10.07;;;1.20;;
76208;SDS011;64990;51.698;-0.292;2023-07-29T13:03:54;9.18;;;1.20;;
76208;SDS011;64990;51.698;-0.292;2023-07-29T13:06:21;6.68;;;1.10;;
76208;SDS011;64990;51.698;-0.292;2023-07-29T13:08:47;6.47;;;1.88;;
76208;SDS011;64990;51.698;-0.292;2023-07-29T13:11:14;12.98;;;1.30;;
76208;SDS011;64990;51.698;-0.292;2023-07-29T13:13:40;5.13;;;2.13;;
76208;SDS011;64990;51.698;-0.292;2023-07-29T13:16:06;5.50;;;1.17;;
76208;SDS011;64990;51.698;-0.292;2023-07-29T13:18:32;5.20;;;2.00;;
76208;SDS011;64990;51.698;-0.292;2023-07-29T13:20:58;6.85;;;1.30;;
76208;SDS011;64990;51.698;-0.292;2023-07-29T13:23:25;4.90;;;0.77;;
76208;SDS011;64990;51.698;-0.292;2023-07-29T13:25:52;4.25;;;1.05;;
76208;SDS011;64990;51.698;-0.292;2023-07-29T13:28:18;1.83;;;0.80;;
76208;SDS011;64990;51.698;-0.292;2023-07-29T13:30:44;0.90;;;0.68;;
76208;SDS011;64990;51.698;-0.292;2023-07-29T13:33:10;3.22;;;1.00;;
76208;SDS011;64990;51.698;-0.292;2023-07-29T13:35:36;3.78;;;1.15;;
76208;SDS011;64990;51.698;-0.292;2023-07-29T13:38:02;4.07;;;0.88;;
76208;SDS011;64990;51.698;-0.292;2023-07-29T13:40:28;1.77;;;0.75;;
76208;SDS011;64990;51.698;-0.292;2023-07-29T13:42:54;3.25;;;1.25;;
76208;SDS011;64990;51.698;-0.292;2023-07-29T13:45:21;3.40;;;0.80;;
76208;SDS011;64990;51.698;-0.292;2023-07-29T13:47:47;3.20;;;1.17;;
76208;SDS011;64990;51.698;-0.292;2023-07-29T13:50:13;4.05;;;0.93;;
76208;SDS011;64990;51.698;-0.292;2023-07-29T13:52:40;2.83;;;0.70;;
76208;SDS011;64990;51.698;-0.292;2023-07-29T13:55:06;1.20;;;0.50;;
76208;SDS011;64990;51.698;-0.292;2023-07-29T13:57:32;6.90;;;1.58;;
76208;SDS011;64990;51.698;-0.292;2023-07-29T13:59:58;3.40;;;1.10;;
76208;SDS011;64990;51.698;-0.292;2023-07-29T14:02:24;5.05;;;1.20;;
76208;SDS011;64990;51.698;-0.292;2023-07-29T14:04:55;3.38;;;1.20;;
76208;SDS011;64990;51.698;-0.292;2023-07-29T14:07:21;6.50;;;0.90;;
76208;SDS011;64990;51.698;-0.292;2023-07-29T14:09:47;8.95;;;2.10;;
76208;SDS011;64990;51.698;-0.292;2023-07-29T14:12:13;3.13;;;0.90;;
76208;SDS011;64990;51.698;-0.292;2023-07-29T14:14:41;2.65;;;1.05;;
76208;SDS011;64990;51.698;-0.292;2023-07-29T14:17:07;4.68;;;0.93;;
76208;SDS011;64990;51.698;-0.292;2023-07-29T14:19:36;8.98;;;2.33;;
76208;SDS011;64990;51.698;-0.292;2023-07-29T14:22:02;4.72;;;1.98;;
76208;SDS011;64990;51.698;-0.292;2023-07-29T14:24:29;7.63;;;2.22;;
76208;SDS011;64990;51.698;-0.292;2023-07-29T14:26:55;8.20;;;1.38;;
76208;SDS011;64990;51.698;-0.292;2023-07-29T14:29:21;5.45;;;1.33;;
76208;SDS011;64990;51.698;-0.292;2023-07-29T14:31:47;8.45;;;1.10;;
76208;SDS011;64990;51.698;-0.292;2023-07-29T14:34:13;3.75;;;0.82;;
76208;SDS011;64990;51.698;-0.292;2023-07-29T14:36:39;4.30;;;1.08;;
76208;SDS011;64990;51.698;-0.292;2023-07-29T14:39:05;6.25;;;1.38;;
76208;SDS011;64990;51.698;-0.292;2023-07-29T14:41:31;5.80;;;1.45;;
76208;SDS011;64990;51.698;-0.292;2023-07-29T14:43:57;6.10;;;1.88;;